Time,TemperatureF,DewpointF,PressureIn,WindDirection,WindDirectionDegrees,WindSpeedMPH,WindSpeedGustMPH,Humidity,HourlyPrecipIn,Conditions,Clouds,dailyrainin,SoftwareType,DateUTC
2013-06-22 06:11:00,58.0,31.0,-100.00,ENE,65,4.0,7.0,35,-99.99,,,-99.99,,2013-06-22 13:11:00,
2013-06-22 08:02:00,65.0,30.0,-100.00,East,94,2.0,4.0,27,-99.99,,,-99.99,,2013-06-22 15:02:00,
2013-06-22 08:53:00,69.0,30.0,-100.00,SE,128,2.0,5.0,23,-99.99,,,-99.99,,2013-06-22 15:53:00,
2013-06-22 09:12:00,72.0,31.0,-100.00,SE,137,2.0,4.0,22,-99.99,,,-99.99,,2013-06-22 16:12:00,
2013-06-22 09:22:00,72.0,31.0,-100.00,SE,137,2.0,4.0,22,-99.99,,,-99.99,,2013-06-22 16:22:00,
2013-06-22 09:34:00,73.0,31.0,-100.00,ESE,114,2.0,6.0,21,-99.99,,,-99.99,,2013-06-22 16:34:00,
2013-06-22 09:52:00,73.0,31.0,-100.00,South,176,3.0,6.0,21,-99.99,,,-99.99,,2013-06-22 16:52:00,
2013-06-22 10:01:00,73.0,31.0,-100.00,SSW,200,4.0,8.0,21,-99.99,,,-99.99,,2013-06-22 17:01:00,
2013-06-22 10:22:00,74.0,32.0,-100.00,SW,217,3.0,10.0,21,-99.99,,,-99.99,,2013-06-22 17:22:00,
2013-06-22 10:34:00,73.0,40.0,-100.00,WSW,245,5.0,10.0,30,-99.99,,,-99.99,,2013-06-22 17:34:00,
2013-06-22 10:43:00,73.0,45.0,-100.00,WSW,253,6.0,10.0,37,-99.99,,,-99.99,,2013-06-22 17:43:00,
2013-06-22 10:52:00,73.0,46.0,-100.00,WSW,245,6.0,10.0,38,-99.99,,,-99.99,,2013-06-22 17:52:00,
2013-06-22 11:01:00,73.0,45.0,-100.00,WSW,250,6.0,9.0,37,-99.99,,,-99.99,,2013-06-22 18:01:00,
2013-06-22 11:11:00,74.0,45.0,-100.00,WSW,246,6.0,10.0,35,-99.99,,,-99.99,,2013-06-22 18:11:00,
2013-06-22 11:22:00,74.0,44.0,-100.00,WSW,253,6.0,11.0,34,-99.99,,,-99.99,,2013-06-22 18:22:00,
2013-06-22 11:43:00,75.0,44.0,-100.00,WSW,252,6.0,11.0,33,-99.99,,,-99.99,,2013-06-22 18:43:00,
2013-06-22 11:52:00,75.0,43.0,-100.00,WSW,243,6.0,11.0,32,-99.99,,,-99.99,,2013-06-22 18:52:00,
2013-06-22 12:11:00,76.0,43.0,-100.00,WSW,254,6.0,11.0,31,-99.99,,,-99.99,,2013-06-22 19:11:00,
2013-06-22 12:21:00,76.0,45.0,-100.00,WSW,252,6.0,15.0,33,-99.99,,,-99.99,,2013-06-22 19:21:00,
2013-06-22 12:33:00,77.0,46.0,-100.00,WSW,254,7.0,12.0,34,-99.99,,,-99.99,,2013-06-22 19:33:00,
2013-06-22 12:42:00,77.0,47.0,-100.00,WSW,250,8.0,16.0,35,-99.99,,,-99.99,,2013-06-22 19:42:00,
2013-06-22 12:52:00,77.0,47.0,-100.00,WSW,250,8.0,16.0,35,-99.99,,,-99.99,,2013-06-22 19:52:00,
2013-06-22 13:02:00,77.0,46.0,-100.00,WSW,254,8.0,13.0,34,-99.99,,,-99.99,,2013-06-22 20:02:00,
2013-06-22 13:11:00,78.0,47.0,-100.00,WSW,251,8.0,13.0,33,-99.99,,,-99.99,,2013-06-22 20:11:00,
2013-06-22 13:22:00,77.0,46.0,-100.00,WSW,245,8.0,17.0,34,-99.99,,,-99.99,,2013-06-22 20:22:00,
2013-06-22 13:42:00,79.0,47.0,-100.00,WSW,253,8.0,16.0,32,-99.99,,,-99.99,,2013-06-22 20:42:00,
2013-06-22 14:11:00,79.0,47.0,-100.00,West,265,7.0,13.0,32,-99.99,,,-99.99,,2013-06-22 21:11:00,
2013-06-22 14:53:00,78.0,48.0,-100.00,West,261,9.0,16.0,35,-99.99,,,-99.99,,2013-06-22 21:53:00,
2013-06-22 15:12:00,79.0,47.0,-100.00,West,259,8.0,13.0,33,-99.99,,,-99.99,,2013-06-22 22:12:00,
2013-06-22 15:23:00,79.0,47.0,-100.00,West,259,8.0,13.0,33,-99.99,,,-99.99,,2013-06-22 22:23:00,
2013-06-22 15:33:00,79.0,47.0,-100.00,WSW,256,7.0,14.0,33,-99.99,,,-99.99,,2013-06-22 22:33:00,
2013-06-22 15:43:00,78.0,47.0,-100.00,WSW,252,8.0,13.0,33,-99.99,,,-99.99,,2013-06-22 22:43:00,
2013-06-22 15:52:00,79.0,47.0,-100.00,West,263,8.0,15.0,32,-99.99,,,-99.99,,2013-06-22 22:52:00,
2013-06-22 16:11:00,79.0,47.0,-100.00,WSW,253,7.0,16.0,33,-99.99,,,-99.99,,2013-06-22 23:11:00,
2013-06-22 16:22:00,78.0,46.0,-100.00,WSW,257,8.0,14.0,32,-99.99,,,-99.99,,2013-06-22 23:22:00,
2013-06-22 16:34:00,78.0,46.0,-100.00,West,268,9.0,11.0,32,-99.99,,,-99.99,,2013-06-22 23:34:00,
2013-06-22 17:01:00,76.0,47.0,-100.00,WSW,256,9.0,13.0,36,-99.99,,,-99.99,,2013-06-23 00:01:00,
2013-06-22 17:11:00,76.0,47.0,-100.00,WSW,256,9.0,13.0,36,-99.99,,,-99.99,,2013-06-23 00:11:00,
2013-06-22 17:22:00,76.0,48.0,-100.00,WSW,250,8.0,15.0,37,-99.99,,,-99.99,,2013-06-23 00:22:00,
2013-06-22 17:33:00,75.0,48.0,-100.00,WSW,256,9.0,14.0,38,-99.99,,,-99.99,,2013-06-23 00:33:00,
2013-06-22 17:52:00,74.0,49.0,-100.00,WSW,252,7.0,12.0,42,-99.99,,,-99.99,,2013-06-23 00:52:00,
2013-06-22 18:11:00,73.0,49.0,-100.00,WSW,251,7.0,13.0,43,-99.99,,,-99.99,,2013-06-23 01:11:00,
2013-06-22 18:21:00,73.0,50.0,-100.00,WSW,257,7.0,11.0,44,-99.99,,,-99.99,,2013-06-23 01:21:00,
2013-06-22 18:32:00,73.0,50.0,-100.00,WSW,253,7.0,11.0,44,-99.99,,,-99.99,,2013-06-23 01:32:00,
2013-06-22 18:42:00,72.0,49.0,-100.00,West,261,7.0,11.0,45,-99.99,,,-99.99,,2013-06-23 01:42:00,
2013-06-22 18:52:00,71.0,49.0,-100.00,WSW,256,7.0,10.0,46,-99.99,,,-99.99,,2013-06-23 01:52:00,
2013-06-22 19:01:00,71.0,50.0,-100.00,WSW,256,6.0,11.0,47,-99.99,,,-99.99,,2013-06-23 02:01:00,
2013-06-22 19:11:00,70.0,49.0,-100.00,West,272,6.0,10.0,48,-99.99,,,-99.99,,2013-06-23 02:11:00,
2013-06-22 19:21:00,69.0,50.0,-100.00,West,269,6.0,10.0,50,-99.99,,,-99.99,,2013-06-23 02:21:00,
2013-06-22 19:31:00,68.0,49.0,-100.00,West,276,6.0,10.0,51,-99.99,,,-99.99,,2013-06-23 02:31:00,
2013-06-22 19:41:00,68.0,50.0,-100.00,WSW,254,5.0,8.0,52,-99.99,,,-99.99,,2013-06-23 02:41:00,
2013-06-22 19:52:00,67.0,49.0,-100.00,WSW,257,4.0,8.0,53,-99.99,,,-99.99,,2013-06-23 02:52:00,
2013-06-22 20:01:00,67.0,50.0,-100.00,West,265,5.0,6.0,54,-99.99,,,-99.99,,2013-06-23 03:01:00,
2013-06-22 20:11:00,67.0,50.0,-100.00,WNW,292,3.0,3.0,55,-99.99,,,-99.99,,2013-06-23 03:11:00,
2013-06-22 20:21:00,65.0,49.0,-100.00,West,275,1.0,4.0,57,-99.99,,,-99.99,,2013-06-23 03:21:00,
2013-06-22 20:31:00,65.0,50.0,-100.00,West,272,2.0,2.0,58,-99.99,,,-99.99,,2013-06-23 03:31:00,
2013-06-22 20:51:00,64.0,49.0,-100.00,North,-999,0.0,0.0,59,-99.99,,,-99.99,,2013-06-23 03:51:00,
2013-06-22 21:01:00,63.0,49.0,-100.00,West,274,0.0,1.0,60,-99.99,,,-99.99,,2013-06-23 04:01:00,
2013-06-22 21:11:00,63.0,49.0,-100.00,NW,312,0.0,1.0,60,-99.99,,,-99.99,,2013-06-23 04:11:00,
2013-06-22 21:21:00,63.0,49.0,-100.00,East,79,0.0,2.0,61,-99.99,,,-99.99,,2013-06-23 04:21:00,
2013-06-22 21:31:00,62.0,49.0,-100.00,NE,50,0.0,2.0,63,-99.99,,,-99.99,,2013-06-23 04:31:00,
2013-06-22 21:42:00,62.0,49.0,-100.00,NE,49,1.0,2.0,63,-99.99,,,-99.99,,2013-06-23 04:42:00,
2013-06-22 21:52:00,61.0,49.0,-100.00,ENE,68,1.0,1.0,65,-99.99,,,-99.99,,2013-06-23 04:52:00,
2013-06-22 22:01:00,61.0,49.0,-100.00,ENE,73,1.0,1.0,65,-99.99,,,-99.99,,2013-06-23 05:01:00,
2013-06-22 22:11:00,62.0,49.0,-100.00,ENE,64,1.0,1.0,63,-99.99,,,-99.99,,2013-06-23 05:11:00,
2013-06-22 22:21:00,62.0,48.0,-100.00,ENE,62,1.0,2.0,61,-99.99,,,-99.99,,2013-06-23 05:21:00,
2013-06-22 22:41:00,61.0,48.0,-100.00,ENE,57,2.0,5.0,62,-99.99,,,-99.99,,2013-06-23 05:41:00,
2013-06-22 23:11:00,60.0,46.0,-100.00,ENE,74,3.0,3.0,60,-99.99,,,-99.99,,2013-06-23 06:11:00,
2013-06-22 23:22:00,60.0,46.0,-100.00,ESE,103,2.0,3.0,60,-99.99,,,-99.99,,2013-06-23 06:22:00,
2013-06-22 23:43:00,60.0,46.0,-100.00,ENE,63,2.0,4.0,59,-99.99,,,-99.99,,2013-06-23 06:43:00,
2013-06-22 23:52:00,60.0,45.0,-100.00,ENE,62,3.0,4.0,58,-99.99,,,-99.99,,2013-06-23 06:52:00,